Time;durP1;ratioP1;P1;durP2;ratioP2;P2;SDS_P1;SDS_P2;PMS_P1;PMS_P2;Temp;Humidity;BMP_temperature;BMP_pressure;BME280_temperature;BME280_humidity;BME280_pressure;Samples;Min_cycle;Max_cycle;Signal;HPM_P1;HPM_P2
2022/12/02 00:02:17;;;;;;;12.18;7.43;;;;;;;15.51;46.19;93478.72;4989720;28;20054;-88
2022/12/02 00:04:43;;;;;;;10.75;7.60;;;;;;;15.51;46.05;93477.97;4989987;28;20084;-87
2022/12/02 00:07:14;;;;;;;13.43;7.05;;;;;;;15.54;45.95;93479.72;4973053;28;20034;-87
2022/12/02 00:09:40;;;;;;;13.50;7.55;;;;;;;15.54;46.04;93480.47;4973828;28;20038;-88
2022/12/02 00:12:21;;;;;;;10.18;6.75;;;;;;;15.54;45.91;93472.28;4987124;28;20038;-88
2022/12/02 00:14:50;;;;;;;13.48;7.45;;;;;;;15.52;46.16;93469.31;4974996;28;20042;-88
2022/12/02 00:17:16;;;;;;;12.77;7.20;;;;;;;15.53;45.61;93467.34;4972116;28;20442;-87
2022/12/02 00:19:41;;;;;;;11.82;7.30;;;;;;;15.52;46.13;93480.22;5005361;28;20060;-88
2022/12/02 00:22:07;;;;;;;12.73;7.18;;;;;;;15.50;46.18;93460.88;5005853;28;20052;-87
2022/12/02 00:24:32;;;;;;;13.05;7.40;;;;;;;15.47;46.08;93467.31;4976252;28;20045;-87
2022/12/02 00:26:58;;;;;;;9.85;6.35;;;;;;;15.52;46.16;93458.41;5005179;28;20096;-86
2022/12/02 00:29:23;;;;;;;11.95;7.13;;;;;;;15.52;46.02;93463.84;4976350;28;20356;-87
2022/12/02 00:31:48;;;;;;;12.20;6.53;;;;;;;15.52;45.97;93461.13;4993499;28;20060;-88
2022/12/02 00:34:14;;;;;;;10.57;6.72;;;;;;;15.48;46.07;93455.19;5023338;28;20041;-87
2022/12/02 00:36:39;;;;;;;10.38;6.78;;;;;;;15.48;46.33;93448.97;4999090;28;20056;-86
2022/12/02 00:39:04;;;;;;;11.70;6.65;;;;;;;15.51;45.97;93451.47;4974430;28;20046;-88
2022/12/02 00:41:30;;;;;;;11.55;6.75;;;;;;;15.50;45.90;93446.50;5018501;28;20401;-88
2022/12/02 00:46:39;;;;;;;10.27;7.05;;;;;;;15.49;45.98;93445.75;5005274;28;20045;-87
2022/12/02 00:49:11;;;;;;;10.93;6.80;;;;;;;15.51;45.96;93448.00;4979053;28;20042;-87
2022/12/02 00:51:36;;;;;;;9.02;5.55;;;;;;;15.50;46.21;93449.25;4990179;28;20038;-87
2022/12/02 00:54:02;;;;;;;11.77;6.78;;;;;;;15.49;46.32;93448.50;5004627;28;20084;-87
2022/12/02 00:56:28;;;;;;;10.88;7.18;;;;;;;15.51;46.09;93445.28;4992795;28;20041;-88
2022/12/02 00:58:53;;;;;;;9.68;6.22;;;;;;;15.51;46.10;93440.56;5009299;28;20107;-87
2022/12/02 01:01:19;;;;;;;11.35;7.00;;;;;;;15.47;46.13;93447.50;5009406;28;20037;-87
2022/12/02 01:03:44;;;;;;;12.93;6.90;;;;;;;15.47;46.20;93445.50;5009734;28;20541;-86
2022/12/02 01:06:10;;;;;;;9.43;5.82;;;;;;;15.48;46.26;93443.53;5025685;28;20465;-87
2022/12/02 01:08:35;;;;;;;10.02;6.15;;;;;;;15.46;45.95;93438.56;5010169;28;20378;-88
2022/12/02 01:11:00;;;;;;;10.82;7.38;;;;;;;15.48;45.90;93440.81;5025280;28;20029;-88
2022/12/02 01:13:26;;;;;;;8.75;6.13;;;;;;;15.48;45.91;93430.66;5026470;28;20041;-88
2022/12/02 01:15:51;;;;;;;9.77;6.18;;;;;;;15.48;46.01;93427.19;5010980;28;20034;-87
2022/12/02 01:18:17;;;;;;;12.68;7.50;;;;;;;15.46;46.02;93429.66;5006388;28;20489;-88
2022/12/02 01:20:42;;;;;;;12.45;6.75;;;;;;;15.47;45.90;93429.16;5013217;28;20042;-88
2022/12/02 01:23:08;;;;;;;8.93;6.20;;;;;;;15.45;45.96;93423.47;5027697;28;20029;-87
2022/12/02 01:25:33;;;;;;;8.52;5.28;;;;;;;15.49;45.92;93421.25;4993994;28;20034;-87
2022/12/02 01:27:59;;;;;;;11.68;6.88;;;;;;;15.46;46.13;93419.50;4976570;28;20038;-87
2022/12/02 01:30:24;;;;;;;12.10;6.93;;;;;;;15.46;46.19;93427.69;4993996;28;20038;-87
2022/12/02 01:32:49;;;;;;;11.35;6.80;;;;;;;15.44;46.07;93428.16;5011004;28;20034;-87
2022/12/02 01:35:15;;;;;;;10.52;6.68;;;;;;;15.46;45.90;93424.94;4999166;28;20100;-88
2022/12/02 01:37:40;;;;;;;9.98;5.70;;;;;;;15.43;45.91;93421.22;4993619;28;20500;-87
2022/12/02 01:40:06;;;;;;;11.52;6.72;;;;;;;15.45;46.13;93420.75;5009584;28;20385;-88
2022/12/02 01:42:31;;;;;;;9.13;5.60;;;;;;;15.44;46.29;93430.88;5009645;28;20046;-88
2022/12/02 01:44:57;;;;;;;10.80;6.22;;;;;;;15.44;46.25;93422.72;5004351;28;20152;-88
2022/12/02 01:47:22;;;;;;;9.55;6.10;;;;;;;15.43;45.73;93420.47;5011483;28;20512;-88
2022/12/02 01:49:51;;;;;;;11.32;6.40;;;;;;;15.45;45.91;93423.47;5013001;28;20466;-87
2022/12/02 01:52:16;;;;;;;10.43;6.40;;;;;;;15.43;46.06;93425.94;5012001;28;20035;-87
2022/12/02 01:54:42;;;;;;;9.35;5.80;;;;;;;15.47;46.00;93420.25;5012654;28;20472;-87
2022/12/02 01:57:12;;;;;;;10.30;6.05;;;;;;;15.43;46.08;93421.22;5029101;28;20683;-88
2022/12/02 01:59:38;;;;;;;9.73;5.63;;;;;;;15.44;46.07;93425.44;5030341;28;20084;-87
2022/12/02 02:02:32;;;;;;;10.73;5.55;;;;;;;15.46;46.14;93424.22;5012081;28;20037;-88
2022/12/02 02:04:59;;;;;;;9.13;5.63;;;;;;;15.43;45.88;93421.22;5012422;28;20058;-87
2022/12/02 02:07:24;;;;;;;8.75;5.90;;;;;;;15.46;46.02;93418.75;5011799;28;20514;-88
2022/12/02 02:09:50;;;;;;;10.68;5.97;;;;;;;15.45;46.14;93423.47;5012849;28;20026;-88
2022/12/02 02:12:15;;;;;;;9.77;5.70;;;;;;;15.43;45.99;93418.50;5010700;28;20046;-86
2022/12/02 02:14:41;;;;;;;12.70;6.78;;;;;;;15.43;46.01;93417.75;5029246;28;20041;-87
2022/12/02 02:17:07;;;;;;;9.35;5.43;;;;;;;15.43;46.19;93418.50;5001309;28;20037;-88
2022/12/02 02:19:32;;;;;;;11.57;5.88;;;;;;;15.41;45.94;93420.22;4978775;28;20120;-87
2022/12/02 02:21:58;;;;;;;9.80;5.85;;;;;;;15.41;46.05;93412.78;4988929;28;20509;-88
2022/12/02 02:24:23;;;;;;;10.32;5.78;;;;;;;15.42;46.17;93413.53;5008504;28;20099;-87
2022/12/02 02:26:50;;;;;;;8.73;5.28;;;;;;;15.43;46.05;93420.47;5026722;28;20124;-88
2022/12/02 02:29:15;;;;;;;9.75;5.95;;;;;;;15.42;46.05;93410.81;5011300;28;20488;-88
2022/12/02 02:31:41;;;;;;;9.07;5.53;;;;;;;15.45;45.83;93407.13;5029807;28;20053;-88
2022/12/02 02:34:06;;;;;;;11.05;6.20;;;;;;;15.41;45.94;93399.19;4988562;28;20049;-88
2022/12/02 02:36:32;;;;;;;10.80;6.05;;;;;;;15.41;45.92;93401.91;5008909;28;20400;-88
2022/12/02 02:38:58;;;;;;;8.70;5.90;;;;;;;15.40;46.14;93405.84;5028559;28;20045;-88
2022/12/02 02:41:23;;;;;;;9.38;5.72;;;;;;;15.41;45.69;93410.06;5011543;28;20103;-87
2022/12/02 02:43:48;;;;;;;13.60;6.20;;;;;;;15.41;45.78;93401.91;5012338;28;20083;-87
2022/12/02 02:46:14;;;;;;;9.43;5.28;;;;;;;15.42;45.93;93413.53;5010661;28;20050;-87
2022/12/02 02:48:39;;;;;;;9.80;5.68;;;;;;;15.42;46.16;93406.13;5011781;28;20110;-88
2022/12/02 02:51:05;;;;;;;8.02;5.18;;;;;;;15.40;45.84;93396.94;5011316;28;20033;-88
2022/12/02 02:53:30;;;;;;;8.45;5.28;;;;;;;15.43;46.33;93412.31;5011502;28;20033;-88
2022/12/02 02:55:55;;;;;;;10.05;5.68;;;;;;;15.41;45.79;93406.59;5027182;28;20083;-88
2022/12/02 02:58:23;;;;;;;10.30;5.53;;;;;;;15.40;45.76;93407.84;5010935;28;20045;-88
2022/12/02 03:00:57;;;;;;;9.50;5.28;;;;;;;15.40;45.76;93403.13;5027748;28;20430;-87
2022/12/02 03:03:24;;;;;;;9.38;6.00;;;;;;;15.40;46.02;93407.84;5010537;28;20366;-87
2022/12/02 03:05:50;;;;;;;8.93;5.53;;;;;;;15.38;46.00;93405.59;4995115;28;20044;-88
2022/12/02 03:08:15;;;;;;;10.73;5.65;;;;;;;15.39;45.83;93404.38;5027028;28;20037;-87
2022/12/02 03:10:41;;;;;;;8.23;4.95;;;;;;;15.39;45.72;93396.19;5010784;28;20025;-87
2022/12/02 03:13:06;;;;;;;12.25;6.28;;;;;;;15.38;45.74;93399.41;5010856;28;20037;-88
2022/12/02 03:15:32;;;;;;;6.22;4.88;;;;;;;15.38;45.91;93399.41;5011381;28;20072;-87
2022/12/02 03:17:57;;;;;;;9.82;5.43;;;;;;;15.38;45.89;93393.97;5010696;28;20041;-87
2022/12/02 03:20:23;;;;;;;8.70;5.75;;;;;;;15.39;45.75;93401.66;4994444;28;20567;-87
2022/12/02 03:22:48;;;;;;;8.00;5.15;;;;;;;15.40;45.76;93399.66;4997635;28;20030;-88
2022/12/02 03:25:13;;;;;;;8.80;4.88;;;;;;;15.39;46.02;93387.28;5008479;28;20037;-87
2022/12/02 03:27:39;;;;;;;8.82;4.65;;;;;;;15.42;46.16;93389.78;5025439;28;20033;-88
2022/12/02 03:30:05;;;;;;;9.05;4.90;;;;;;;15.40;45.88;93388.78;5028135;28;20030;-87
2022/12/02 03:32:30;;;;;;;7.70;5.13;;;;;;;15.38;45.83;93391.97;5010994;28;20056;-87
2022/12/02 03:34:56;;;;;;;6.97;4.82;;;;;;;15.38;45.76;93385.78;5022540;28;20041;-87
2022/12/02 03:37:22;;;;;;;7.97;4.75;;;;;;;15.40;45.81;93384.06;4985729;28;20038;-86
2022/12/02 03:39:47;;;;;;;10.02;5.40;;;;;;;15.37;45.98;93384.34;5027229;28;20120;-88
2022/12/02 03:42:13;;;;;;;11.50;5.38;;;;;;;15.38;46.04;93381.09;5010187;28;20034;-86
2022/12/02 03:44:38;;;;;;;8.23;5.05;;;;;;;15.37;45.71;93382.31;5011237;28;20033;-88
2022/12/02 03:47:03;;;;;;;9.73;5.38;;;;;;;15.34;45.80;93377.13;4992133;28;20518;-88
2022/12/02 03:49:31;;;;;;;8.70;4.75;;;;;;;15.35;46.06;93375.91;5011032;28;20045;-87
2022/12/02 03:51:57;;;;;;;8.07;5.28;;;;;;;15.36;46.04;93369.97;4991200;28;20029;-89
2022/12/02 03:54:22;;;;;;;8.32;5.20;;;;;;;15.37;46.03;93374.16;4990131;28;20053;-88
2022/12/02 03:56:47;;;;;;;8.32;5.68;;;;;;;15.35;45.75;93367.72;4990865;28;20034;-87
2022/12/02 03:59:22;;;;;;;10.00;5.20;;;;;;;15.37;45.63;93365.97;4989433;28;20060;-88
2022/12/02 04:01:48;;;;;;;7.90;4.90;;;;;;;15.34;45.95;93369.72;4991590;28;20077;-88
2022/12/02 04:04:13;;;;;;;8.00;5.07;;;;;;;15.36;45.77;93369.22;4974468;28;20500;-87
2022/12/02 04:06:38;;;;;;;8.68;4.75;;;;;;;15.35;45.99;93356.84;4990639;28;20087;-87
2022/12/02 04:09:04;;;;;;;7.38;5.05;;;;;;;15.34;45.85;93367.00;4973878;28;20042;-86
2022/12/02 04:11:29;;;;;;;7.45;5.13;;;;;;;15.35;46.09;93362.28;4990924;28;20048;-87
2022/12/02 04:13:54;;;;;;;7.40;5.05;;;;;;;15.36;45.92;93358.31;4990523;28;20041;-88
2022/12/02 04:16:20;;;;;;;7.80;4.88;;;;;;;15.38;45.96;93359.31;4989759;28;20409;-87
2022/12/02 04:18:45;;;;;;;8.52;4.80;;;;;;;15.39;45.82;93360.78;5017414;28;20038;-88
2022/12/02 04:21:11;;;;;;;8.40;5.25;;;;;;;15.37;46.01;93362.53;4970396;28;20038;-87
2022/12/02 04:23:36;;;;;;;9.63;4.80;;;;;;;15.37;45.83;93360.53;4987402;28;20041;-88
2022/12/02 04:26:01;;;;;;;9.02;5.75;;;;;;;15.36;45.83;93358.31;5010234;28;20037;-88
2022/12/02 04:28:28;;;;;;;9.10;5.50;;;;;;;15.37;45.95;93351.66;5008911;28;20090;-87
2022/12/02 04:30:53;;;;;;;8.10;5.03;;;;;;;15.35;45.92;93362.28;5010329;28;20133;-87
2022/12/02 04:33:18;;;;;;;9.70;5.50;;;;;;;15.32;45.97;93355.84;5009353;28;20042;-88
2022/12/02 04:35:44;;;;;;;7.53;4.90;;;;;;;15.35;45.68;93362.28;5008488;28;20064;-88
2022/12/02 04:38:09;;;;;;;8.43;5.00;;;;;;;15.34;45.87;93363.53;4992807;28;20045;-88
2022/12/02 04:40:34;;;;;;;7.28;4.93;;;;;;;15.35;45.83;93363.03;5009701;28;20037;-86
2022/12/02 04:43:00;;;;;;;7.70;5.07;;;;;;;15.34;45.51;93358.81;5010346;28;20613;-88
2022/12/02 04:45:25;;;;;;;8.77;5.13;;;;;;;15.35;45.69;93365.00;4999642;28;20042;-87
2022/12/02 04:47:51;;;;;;;7.43;4.20;;;;;;;15.34;45.65;93353.38;5007182;28;20092;-87
2022/12/02 04:50:16;;;;;;;6.90;4.53;;;;;;;15.33;45.74;93349.16;5006877;28;20047;-88
2022/12/02 04:52:41;;;;;;;9.57;5.30;;;;;;;15.34;45.87;93361.53;4982085;28;20095;-87
2022/12/02 04:55:07;;;;;;;7.78;5.07;;;;;;;15.33;45.83;93353.88;5009072;28;20029;-87
2022/12/02 04:57:33;;;;;;;7.10;4.63;;;;;;;15.32;45.86;93349.66;5009626;28;20215;-88
2022/12/02 04:59:58;;;;;;;8.45;4.88;;;;;;;15.34;46.13;93350.66;5026572;28;20037;-86
2022/12/02 05:02:24;;;;;;;6.53;4.05;;;;;;;15.32;45.36;93360.53;5008430;28;20045;-88
2022/12/02 05:04:49;;;;;;;8.90;5.13;;;;;;;15.35;45.96;93354.13;5026387;28;20041;-87
2022/12/02 05:07:14;;;;;;;7.95;4.70;;;;;;;15.34;45.63;93355.34;5005615;28;20038;-88
2022/12/02 05:09:40;;;;;;;7.45;4.15;;;;;;;15.33;45.58;93357.31;5004167;28;20041;-87
2022/12/02 05:12:05;;;;;;;7.72;4.70;;;;;;;15.32;45.95;93353.13;5008166;28;20038;-87
2022/12/02 05:14:31;;;;;;;7.55;4.40;;;;;;;15.33;45.66;93351.13;5027638;28;20594;-88
2022/12/02 05:16:56;;;;;;;8.07;4.88;;;;;;;15.34;45.89;93355.34;5026780;28;20038;-87
2022/12/02 05:19:21;;;;;;;8.63;5.35;;;;;;;15.33;45.85;93345.69;5025626;28;20041;-88
2022/12/02 05:21:47;;;;;;;7.63;4.70;;;;;;;15.36;45.44;93352.88;5009607;28;20421;-87
2022/12/02 05:24:12;;;;;;;6.85;4.90;;;;;;;15.32;45.60;93349.66;5008276;28;20480;-87
2022/12/02 05:26:38;;;;;;;6.93;4.45;;;;;;;15.36;45.57;93344.72;5009136;28;20034;-88
2022/12/02 05:29:04;;;;;;;8.73;5.03;;;;;;;15.30;45.92;93361.03;5026051;28;20064;-87
2022/12/02 05:31:30;;;;;;;7.60;4.82;;;;;;;15.31;45.79;93348.16;5025667;28;20452;-88
2022/12/02 05:33:55;;;;;;;8.25;4.88;;;;;;;15.32;45.80;93355.09;5009742;28;20357;-87
2022/12/02 05:36:21;;;;;;;9.90;4.75;;;;;;;15.31;45.57;93346.19;5000674;28;20042;-87
2022/12/02 05:38:49;;;;;;;7.88;4.28;;;;;;;15.30;45.50;93352.88;4992522;28;20045;-88
2022/12/02 05:41:14;;;;;;;7.20;4.88;;;;;;;15.33;45.42;93342.97;5009249;28;20044;-87
2022/12/02 05:43:40;;;;;;;7.22;4.60;;;;;;;15.32;45.80;93347.66;5026639;28;20041;-87
2022/12/02 05:46:15;;;;;;;8.60;4.60;;;;;;;15.30;45.51;93347.41;5001852;28;20025;-87
2022/12/02 05:48:40;;;;;;;6.72;4.20;;;;;;;15.31;45.52;93345.44;5007191;28;20033;-87
2022/12/02 05:51:11;;;;;;;6.75;3.67;;;;;;;15.34;45.65;93347.19;5007679;28;20637;-88
2022/12/02 05:53:37;;;;;;;8.00;4.63;;;;;;;15.33;45.46;93349.16;5009295;28;20377;-87
2022/12/02 05:56:03;;;;;;;6.30;4.45;;;;;;;15.32;45.77;93353.13;5009103;28;20072;-88
2022/12/02 05:58:29;;;;;;;7.50;4.47;;;;;;;15.32;45.86;93344.19;5008828;28;20060;-88
2022/12/02 06:00:56;;;;;;;8.40;4.32;;;;;;;15.35;45.54;93352.13;5007829;28;20041;-87
2022/12/02 06:03:22;;;;;;;7.13;4.10;;;;;;;15.30;45.60;93346.66;5011188;28;20045;-88
2022/12/02 06:05:48;;;;;;;8.65;4.60;;;;;;;15.35;45.78;93348.66;5012911;28;20381;-86
2022/12/02 06:08:26;;;;;;;7.70;4.18;;;;;;;15.37;45.58;93340.75;5029357;28;20048;-88
2022/12/02 06:10:56;;;;;;;6.90;4.32;;;;;;;15.32;45.70;93342.22;5012823;28;20032;-87
2022/12/02 06:13:23;;;;;;;7.10;3.92;;;;;;;15.32;45.81;93352.38;5024616;28;20038;-86
2022/12/02 06:15:49;;;;;;;7.63;4.90;;;;;;;15.33;45.51;93338.25;4985013;28;20030;-86
2022/12/02 06:18:20;;;;;;;7.80;4.47;;;;;;;15.32;45.40;93344.19;5003301;28;20853;-88
2022/12/02 06:20:46;;;;;;;7.63;4.10;;;;;;;15.34;45.35;93347.91;5005392;28;20049;-86
2022/12/02 06:23:17;;;;;;;8.07;4.70;;;;;;;15.33;45.52;93349.16;4991892;28;20508;-88
2022/12/02 06:25:43;;;;;;;7.78;4.28;;;;;;;15.33;45.37;93356.59;4992601;28;20382;-88
2022/12/02 06:28:20;;;;;;;6.88;3.70;;;;;;;15.35;45.43;93354.88;4992350;28;20045;-88
2022/12/02 06:30:45;;;;;;;6.68;3.67;;;;;;;15.33;45.54;93356.59;4977299;28;20038;-88
2022/12/02 06:33:23;;;;;;;6.70;3.95;;;;;;;15.34;45.56;93355.34;4978669;28;20120;-89
2022/12/02 06:35:48;;;;;;;6.63;3.88;;;;;;;15.33;45.40;93354.59;4982824;28;20040;-86
2022/12/02 06:38:21;;;;;;;6.68;3.42;;;;;;;15.31;45.72;93353.59;4950489;28;20038;-86
2022/12/02 06:40:47;;;;;;;7.88;3.58;;;;;;;15.35;45.42;93360.31;4979367;28;20504;-86
2022/12/02 06:43:15;;;;;;;9.40;3.75;;;;;;;15.35;45.21;93359.56;4974531;28;20453;-87
2022/12/02 06:45:42;;;;;;;6.25;3.30;;;;;;;15.39;45.21;93354.59;4980664;28;20664;-87
2022/12/02 06:48:26;;;;;;;7.10;3.53;;;;;;;15.38;45.50;93342.97;4973215;28;20038;-88
2022/12/02 06:50:51;;;;;;;6.68;4.32;;;;;;;15.44;45.49;93360.06;5009375;28;20045;-86
2022/12/02 06:53:23;;;;;;;6.18;3.58;;;;;;;15.44;45.43;93359.31;4990987;28;20034;-87
2022/12/02 06:55:50;;;;;;;7.68;3.70;;;;;;;15.41;45.27;93360.31;5007180;28;20065;-88
2022/12/02 06:58:18;;;;;;;8.57;3.17;;;;;;;15.41;45.24;93358.31;4992197;28;20048;-90
2022/12/02 07:00:43;;;;;;;10.20;4.53;;;;;;;15.39;45.18;93363.50;5009138;28;20060;-87
2022/12/02 07:03:18;;;;;;;8.63;4.53;;;;;;;15.39;45.50;93362.78;4992242;28;20042;-88
2022/12/02 07:05:43;;;;;;;8.73;4.80;;;;;;;15.40;44.78;93364.25;4978698;28;20065;-87
2022/12/02 07:08:09;;;;;;;14.68;5.32;;;;;;;15.45;44.33;93358.09;4992244;28;20548;-87
2022/12/02 07:10:34;;;;;;;9.82;4.93;;;;;;;15.43;44.19;93358.56;5003646;28;20042;-85
2022/12/02 07:13:01;;;;;;;11.00;5.97;;;;;;;15.42;44.64;93362.53;5003028;28;20053;-84
2022/12/02 07:15:31;;;;;;;13.57;5.97;;;;;;;15.41;45.08;93366.50;4965946;28;20070;-89
2022/12/02 07:17:58;;;;;;;11.13;5.72;;;;;;;15.45;44.87;93371.69;5005582;28;20135;-88
2022/12/02 07:20:33;;;;;;;14.65;5.75;;;;;;;15.44;45.16;93365.50;4982155;28;20045;-86
2022/12/02 07:23:23;;;;;;;6.88;4.35;;;;;;;15.43;45.39;93357.81;5019272;28;20079;-89
2022/12/02 07:25:56;;;;;;;13.93;6.25;;;;;;;15.50;45.46;93360.09;5013095;28;20040;-90
2022/12/02 07:28:33;;;;;;;13.98;7.45;;;;;;;15.53;44.71;93361.81;4994856;28;20528;-88
2022/12/02 07:31:19;;;;;;;8.82;6.40;;;;;;;15.51;45.20;93358.09;5009966;28;20042;-87
2022/12/02 07:33:44;;;;;;;11.65;7.30;;;;;;;15.44;45.38;93351.88;5008761;28;20115;-87
2022/12/02 07:36:10;;;;;;;9.65;5.53;;;;;;;15.41;45.32;93358.31;5007115;28;20531;-87
2022/12/02 07:38:36;;;;;;;8.20;4.70;;;;;;;15.40;46.04;93359.56;4977781;28;20464;-87
2022/12/02 07:41:02;;;;;;;10.70;6.30;;;;;;;15.40;45.66;93361.53;5007504;28;20109;-87
2022/12/02 07:43:27;;;;;;;9.75;6.40;;;;;;;15.38;45.37;93362.03;5005494;28;20041;-87
2022/12/02 07:45:53;;;;;;;8.48;5.53;;;;;;;15.35;45.55;93357.59;4994167;28;20095;-87
2022/12/02 07:48:18;;;;;;;8.23;5.00;;;;;;;15.38;45.58;93364.75;4989043;28;20042;-87
2022/12/02 07:50:43;;;;;;;8.20;5.47;;;;;;;15.38;45.62;93356.56;5009300;28;20025;-87
2022/12/02 07:53:09;;;;;;;7.75;5.03;;;;;;;15.38;45.81;93364.00;5027175;28;20559;-87
2022/12/02 07:55:34;;;;;;;8.07;5.68;;;;;;;15.36;45.58;93361.78;5010658;28;20044;-87
2022/12/02 07:58:00;;;;;;;7.47;5.28;;;;;;;15.34;45.45;93364.25;5010327;28;20033;-87
2022/12/02 08:00:25;;;;;;;7.03;4.80;;;;;;;15.34;45.44;93360.78;5009757;28;20046;-87
2022/12/02 08:02:51;;;;;;;6.50;4.38;;;;;;;15.33;45.54;93357.31;5009612;28;20171;-87
2022/12/02 08:05:17;;;;;;;8.30;5.75;;;;;;;15.32;45.61;93366.00;4993661;28;20030;-87
2022/12/02 08:07:42;;;;;;;8.40;5.22;;;;;;;15.33;45.32;93367.47;5026216;28;20042;-87
2022/12/02 08:10:08;;;;;;;9.50;4.47;;;;;;;15.34;45.97;93360.78;5009516;28;20050;-87
2022/12/02 08:12:33;;;;;;;8.75;4.38;;;;;;;15.36;45.61;93352.88;5009717;28;20439;-87
2022/12/02 08:14:59;;;;;;;6.13;4.07;;;;;;;15.35;45.77;93354.88;5009017;28;20038;-86
2022/12/02 08:17:24;;;;;;;6.28;4.35;;;;;;;15.36;45.56;93350.91;5023993;28;20034;-87
2022/12/02 08:19:50;;;;;;;7.53;4.57;;;;;;;15.35;45.86;93345.94;5006572;28;20029;-87
2022/12/02 08:22:15;;;;;;;9.00;4.35;;;;;;;15.34;45.79;93358.81;4991210;28;20511;-87
2022/12/02 08:24:40;;;;;;;6.43;4.20;;;;;;;15.37;45.85;93346.91;4989930;28;20038;-86
2022/12/02 08:27:06;;;;;;;6.82;4.47;;;;;;;15.33;45.59;93353.88;4989222;28;20034;-87
2022/12/02 08:29:31;;;;;;;5.22;4.07;;;;;;;15.33;45.44;93345.69;4989992;28;20045;-87
2022/12/02 08:31:57;;;;;;;5.82;3.83;;;;;;;15.32;45.75;93355.09;4990021;28;20416;-87
2022/12/02 08:34:22;;;;;;;5.55;3.78;;;;;;;15.32;45.71;93352.38;5025025;28;20053;-87
2022/12/02 08:36:47;;;;;;;6.65;3.90;;;;;;;15.33;45.79;93346.44;4994155;28;20096;-87
2022/12/02 08:39:13;;;;;;;5.90;3.85;;;;;;;15.31;45.84;93346.19;4989937;28;20388;-87
2022/12/02 08:41:38;;;;;;;8.35;4.10;;;;;;;15.31;45.50;93348.91;5006410;28;20037;-86
2022/12/02 08:44:04;;;;;;;7.60;3.92;;;;;;;15.32;45.83;93347.66;4988813;28;20044;-87
2022/12/02 08:46:29;;;;;;;6.20;4.15;;;;;;;15.32;45.58;93344.94;5009919;28;20126;-86
2022/12/02 08:48:55;;;;;;;5.55;3.78;;;;;;;15.34;45.62;93350.66;5008498;28;20069;-86
2022/12/02 08:51:20;;;;;;;7.05;3.65;;;;;;;15.35;45.55;93343.97;4989129;28;20045;-87
2022/12/02 08:53:45;;;;;;;6.28;4.03;;;;;;;15.33;45.65;93343.72;4996003;28;20041;-87
2022/12/02 08:56:11;;;;;;;5.53;3.45;;;;;;;15.32;46.13;93349.66;5008786;28;20455;-87
2022/12/02 08:58:36;;;;;;;5.35;4.00;;;;;;;15.32;45.59;93355.84;5008730;28;20037;-86
2022/12/02 09:01:02;;;;;;;5.40;3.33;;;;;;;15.33;45.86;93346.44;4991412;28;20348;-86
2022/12/02 09:03:27;;;;;;;5.28;3.20;;;;;;;15.36;45.65;93353.63;5004050;28;20038;-86
2022/12/02 09:05:52;;;;;;;5.07;3.33;;;;;;;15.33;45.70;93349.16;5004105;28;20037;-86
2022/12/02 09:08:18;;;;;;;7.97;3.38;;;;;;;15.31;45.78;93348.91;4996932;28;20044;-86
2022/12/02 09:10:43;;;;;;;4.07;3.05;;;;;;;15.36;45.63;93350.91;5027050;28;20029;-86
2022/12/02 09:13:09;;;;;;;5.28;3.78;;;;;;;15.35;45.20;93351.41;5007387;28;20029;-86
2022/12/02 09:15:34;;;;;;;15.77;8.88;;;;;;;15.22;42.65;93351.84;4987304;28;20039;-86
2022/12/02 09:17:59;;;;;;;26.02;10.90;;;;;;;15.14;41.12;93355.53;4978060;28;20049;-86
2022/12/02 09:20:25;;;;;;;26.90;12.68;;;;;;;15.15;40.59;93354.31;5003884;28;20037;-87
2022/12/02 09:22:50;;;;;;;27.58;13.18;;;;;;;15.15;40.81;93349.63;4987946;28;20030;-87
2022/12/02 09:25:16;;;;;;;22.55;13.30;;;;;;;15.15;40.79;93348.88;4996535;28;20527;-86
2022/12/02 09:27:41;;;;;;;23.70;11.57;;;;;;;15.20;40.91;93342.66;5006814;28;20038;-87
2022/12/02 09:30:07;;;;;;;19.00;11.00;;;;;;;15.21;41.69;93344.16;5007050;28;20088;-86
2022/12/02 09:32:32;;;;;;;12.38;7.88;;;;;;;15.24;42.97;93343.19;4990736;28;20045;-87
2022/12/02 09:34:58;;;;;;;10.70;6.28;;;;;;;15.24;43.75;93348.63;5015728;28;20099;-87
2022/12/02 09:37:23;;;;;;;9.30;5.50;;;;;;;15.21;44.37;93339.47;4999837;28;20428;-86
2022/12/02 09:39:49;;;;;;;15.18;5.68;;;;;;;15.27;44.66;93344.94;4993675;28;20097;-85
2022/12/02 09:42:14;;;;;;;8.27;5.25;;;;;;;15.27;44.65;93337.50;4992470;28;20517;-86
2022/12/02 09:44:40;;;;;;;9.82;5.50;;;;;;;15.29;44.79;93342.47;4996758;28;20454;-87
2022/12/02 09:47:05;;;;;;;8.65;5.28;;;;;;;15.30;44.53;93333.81;5012314;28;20041;-87
2022/12/02 09:49:30;;;;;;;9.23;5.50;;;;;;;15.30;44.73;93341.22;5010421;28;20038;-87
2022/12/02 09:51:58;;;;;;;7.32;4.88;;;;;;;15.32;44.51;93349.66;4993675;28;20038;-86
2022/12/02 09:54:24;;;;;;;9.90;5.28;;;;;;;15.33;44.76;93345.69;4991696;28;20060;-86
2022/12/02 09:56:49;;;;;;;8.77;4.85;;;;;;;15.32;44.50;93342.22;5005143;28;20092;-87
2022/12/02 09:59:15;;;;;;;10.38;5.18;;;;;;;15.32;44.28;93342.22;4992701;28;20120;-87
2022/12/02 10:01:44;;;;;;;6.88;4.55;;;;;;;15.30;44.21;93339.25;4996194;28;20427;-86
2022/12/02 10:04:11;;;;;;;8.45;4.50;;;;;;;15.30;44.47;93336.53;4994099;28;20037;-87
2022/12/02 10:06:36;;;;;;;7.78;4.90;;;;;;;15.30;44.80;93336.53;5011727;28;20766;-87
2022/12/02 10:09:02;;;;;;;8.82;4.50;;;;;;;15.31;44.35;93340.00;5011953;28;20045;-87
2022/12/02 10:11:31;;;;;;;6.75;4.43;;;;;;;15.32;44.44;93327.84;4994772;28;20342;-87
2022/12/02 10:13:57;;;;;;;7.78;4.50;;;;;;;15.31;44.53;93331.81;5002595;28;20129;-86
2022/12/02 10:16:22;;;;;;;6.07;4.30;;;;;;;15.31;44.66;93332.56;5011346;28;20038;-87
2022/12/02 10:18:47;;;;;;;7.15;4.15;;;;;;;15.30;44.32;93322.91;5012339;28;20042;-87
2022/12/02 10:21:13;;;;;;;6.07;4.10;;;;;;;15.31;44.46;93332.56;4995289;28;20037;-86
2022/12/02 10:23:54;;;;;;;7.72;4.75;;;;;;;15.31;44.65;93315.47;4992280;28;20046;-86
2022/12/02 10:26:20;;;;;;;6.68;4.07;;;;;;;15.28;44.46;93324.63;4983935;28;20481;-87
2022/12/02 10:28:58;;;;;;;8.40;4.28;;;;;;;15.30;44.46;93317.47;4959585;28;20042;-87
2022/12/02 10:31:24;;;;;;;6.32;4.53;;;;;;;15.28;44.68;93314.47;4976125;28;20541;-87
2022/12/02 10:33:52;;;;;;;7.13;4.22;;;;;;;15.29;44.84;93317.94;5000271;28;20052;-87
2022/12/02 10:36:40;;;;;;;6.63;4.20;;;;;;;15.32;44.52;93320.44;5021332;28;20129;-87
2022/12/02 10:39:20;;;;;;;7.03;3.80;;;;;;;15.31;44.45;93315.47;4985047;28;20041;-87
2022/12/02 10:41:48;;;;;;;6.13;4.00;;;;;;;15.31;44.67;93320.94;5011705;28;20045;-86
2022/12/02 10:44:18;;;;;;;5.15;3.70;;;;;;;15.28;44.93;93314.47;5010090;28;20038;-87
2022/12/02 10:46:44;;;;;;;5.93;3.53;;;;;;;15.30;44.52;93314.00;5022195;28;20037;-87
2022/12/02 10:49:21;;;;;;;7.75;3.35;;;;;;;15.29;45.12;93302.34;4993326;28;20051;-87
2022/12/02 10:51:47;;;;;;;6.20;3.65;;;;;;;15.28;44.65;93295.41;5029208;28;20095;-87
2022/12/02 10:54:21;;;;;;;5.75;4.00;;;;;;;15.30;44.70;93309.28;5010185;28;20140;-86
2022/12/02 10:56:50;;;;;;;5.35;3.53;;;;;;;15.28;44.89;93300.13;5010998;28;20624;-86
2022/12/02 10:59:15;;;;;;;6.35;4.30;;;;;;;15.29;44.56;93302.34;5010888;28;20057;-87
2022/12/02 11:01:42;;;;;;;5.32;3.63;;;;;;;15.28;44.73;93297.41;5010951;28;20408;-87
2022/12/02 11:04:14;;;;;;;6.68;3.80;;;;;;;15.28;44.59;93303.59;4990381;28;20111;-86
2022/12/02 11:06:40;;;;;;;7.60;4.00;;;;;;;15.29;45.04;93301.59;4972307;28;20034;-87
2022/12/02 11:09:05;;;;;;;5.00;3.80;;;;;;;15.29;44.80;93299.63;4974586;28;20046;-87
2022/12/02 11:11:30;;;;;;;5.50;3.63;;;;;;;15.28;45.04;93292.69;4975359;28;20175;-87
2022/12/02 11:13:57;;;;;;;8.18;4.20;;;;;;;15.30;44.93;93297.66;4989710;28;20779;-87
2022/12/02 11:16:25;;;;;;;4.72;3.53;;;;;;;15.29;44.93;93290.72;4971190;28;20051;-87
2022/12/02 11:19:01;;;;;;;5.65;3.45;;;;;;;15.29;44.90;93296.16;4997044;28;20057;-86
2022/12/02 11:21:27;;;;;;;5.45;3.70;;;;;;;15.28;44.97;93284.53;4956767;28;20027;-86
2022/12/02 11:24:25;;;;;;;6.13;3.80;;;;;;;15.30;44.92;93292.19;4988006;28;20397;-87
2022/12/02 11:27:01;;;;;;;8.05;4.05;;;;;;;15.31;44.67;93289.00;5007959;28;20026;-87
2022/12/02 11:29:28;;;;;;;5.93;3.63;;;;;;;15.31;45.12;93283.53;4990695;28;20053;-86
2022/12/02 11:32:25;;;;;;;7.07;4.22;;;;;;;15.31;44.73;93286.25;4991432;28;20037;-87
2022/12/02 11:34:59;;;;;;;6.80;4.18;;;;;;;15.31;45.25;93280.06;5008157;28;20091;-86